Portada
METAR-TAF:

METAR-TAF

Aeroports :

Illes Wake, Estats Units d'Amèrica

latitud: 19-17N, longitud: 166-39E, altitud: 4 m

METAR: manca

Hora: 17:50 (05:50 UTC)

Pronòstic

L'informe es va fer fa 7 hores i 50 minuts, a les 22:00 UTC
Pronòstic vàlid del 30 a les 22 UTC al 02 a les 04 UTC
Vent 15 kt del Est
Visibilitat 10 km o més
Cel ennuvolat a una alçada de 3000 ft
Temporalment
l' 01 a les 12 UTC al 01 a les 18 UTC
Visibilitat: 0204 m
Cel cobert a una alçada de 3000 ft
xàfecs de pluja

TAF: PWAK 302200Z 3022/0204 10015KT 9999 BKN030 QNH2985INS TEMPO 0112/0118 9000 -SHRA OVC030 TX29/0106Z TN26/0115Z FOR MIL USE ONLY LIMITED METWATCH 3022 TIL 0204

Observacions i pronòstics meteorològics de més de 4000 aeroports (METAR i TAF).

Les estacions disponibles són els punts grocs i vermells al mapa.

Posi el ratolí al punt desitjat per veure el nom de l'estació.

Feu clic per veure les observacions i els pronòstics meteorològics.

Per canviar el mapa: feu clic els botons verds amb una creu de color negre per apropar; al botó verd amb un guió per allunyar la imatge; o en les fletxes verdes per a mapes adjacents.


METAR-TAF: